Time;durP1;ratioP1;P1;durP2;ratioP2;P2;SDS_P1;SDS_P2;PMS_P1;PMS_P2;Temp;Humidity;BMP_temperature;BMP_pressure;BME280_temperature;BME280_humidity;BME280_pressure;Samples;Min_cycle;Max_cycle;Signal;HPM_P1;HPM_P2
2021/05/28 00:01:08;;;;;;;1.42;1.33;;;14.30;90.70;;;;;;5084668;28;27439;-69
2021/05/28 00:03:52;;;;;;;2.38;2.13;;;14.30;91.10;;;;;;5067036;28;27417;-69
2021/05/28 00:06:37;;;;;;;1.77;1.48;;;14.20;90.60;;;;;;5085590;28;27454;-69
2021/05/28 00:09:21;;;;;;;6.85;1.48;;;14.20;90.60;;;;;;5084799;28;27639;-69
2021/05/28 00:12:06;;;;;;;2.00;1.65;;;14.20;90.60;;;;;;5085024;28;27355;-68
2021/05/28 00:14:51;;;;;;;3.05;1.65;;;14.20;90.60;;;;;;5085277;28;27367;-69
2021/05/28 00:17:35;;;;;;;2.75;1.30;;;14.20;90.70;;;;;;5085132;28;27402;-69
2021/05/28 00:20:20;;;;;;;2.47;1.40;;;14.10;90.10;;;;;;5085202;28;27374;-69
2021/05/28 00:23:05;;;;;;;5.40;1.60;;;14.10;90.30;;;;;;5085070;28;27363;-69
2021/05/28 00:25:49;;;;;;;2.25;1.48;;;14.10;90.10;;;;;;5084932;28;27325;-70
2021/05/28 00:28:34;;;;;;;3.13;1.67;;;14.10;90.50;;;;;;5081228;28;27328;-69
2021/05/28 00:31:19;;;;;;;2.72;1.83;;;14.00;90.00;;;;;;5084774;28;27532;-69
2021/05/28 00:34:03;;;;;;;1.98;1.50;;;14.00;90.10;;;;;;5084884;28;27414;-69
2021/05/28 00:36:48;;;;;;;2.42;1.60;;;14.00;90.30;;;;;;5084694;28;27326;-69
2021/05/28 00:39:32;;;;;;;1.83;1.70;;;14.00;90.30;;;;;;5084678;28;27412;-69
2021/05/28 00:42:16;;;;;;;5.35;1.92;;;14.00;90.30;;;;;;5085017;28;27371;-69
2021/05/28 00:45:01;;;;;;;2.08;1.88;;;13.90;89.90;;;;;;5084969;28;27403;-69
2021/05/28 00:47:46;;;;;;;2.67;1.60;;;13.90;90.10;;;;;;5084024;28;27564;-69
2021/05/28 00:50:30;;;;;;;3.45;1.70;;;13.90;90.10;;;;;;5084423;28;27464;-69
2021/05/28 00:53:15;;;;;;;2.15;1.83;;;13.90;89.60;;;;;;5084552;28;27482;-69
2021/05/28 00:56:00;;;;;;;3.97;1.83;;;13.80;90.20;;;;;;5084076;28;27418;-69
2021/05/28 00:58:46;;;;;;;1.88;1.65;;;13.80;90.10;;;;;;5083905;28;27469;-69
2021/05/28 01:01:31;;;;;;;2.45;1.52;;;13.80;89.90;;;;;;5083766;28;27422;-69
2021/05/28 01:04:15;;;;;;;3.35;1.65;;;13.80;89.60;;;;;;5084013;28;27416;-69
2021/05/28 01:07:00;;;;;;;3.17;1.90;;;13.70;89.90;;;;;;5084584;28;27426;-69
2021/05/28 01:09:44;;;;;;;2.40;1.50;;;13.70;89.80;;;;;;5083739;28;27523;-69
2021/05/28 01:12:29;;;;;;;3.97;1.95;;;13.70;90.70;;;;;;5084473;28;28029;-69
2021/05/28 01:15:13;;;;;;;1.77;1.63;;;13.70;90.20;;;;;;5080383;28;27542;-69
2021/05/28 01:17:58;;;;;;;2.80;1.92;;;13.60;90.00;;;;;;5084245;28;27425;-70
2021/05/28 01:20:42;;;;;;;1.95;1.70;;;13.60;90.10;;;;;;5084498;28;27474;-68
2021/05/28 01:23:27;;;;;;;5.13;1.75;;;13.60;89.60;;;;;;5084042;28;27435;-70
2021/05/28 01:26:12;;;;;;;2.50;1.70;;;13.50;89.90;;;;;;5083616;28;27437;-68
2021/05/28 01:28:56;;;;;;;2.88;1.60;;;13.50;90.20;;;;;;5084155;28;27470;-68
2021/05/28 01:31:41;;;;;;;2.97;2.20;;;13.50;90.50;;;;;;5082242;28;27506;-69
2021/05/28 01:34:26;;;;;;;4.03;1.88;;;13.50;90.40;;;;;;5084070;28;27458;-68
2021/05/28 01:37:10;;;;;;;3.38;2.05;;;13.50;90.70;;;;;;5068954;28;27380;-69
2021/05/28 01:39:54;;;;;;;2.40;1.65;;;13.50;90.90;;;;;;5084090;28;27321;-69
2021/05/28 01:42:39;;;;;;;2.55;2.15;;;13.50;91.30;;;;;;5083098;28;27387;-68
2021/05/28 01:45:23;;;;;;;7.50;2.40;;;13.50;91.20;;;;;;5084001;28;27321;-69
2021/05/28 01:48:08;;;;;;;2.63;2.15;;;13.50;90.90;;;;;;5083779;28;27517;-69
2021/05/28 01:50:53;;;;;;;3.63;2.55;;;13.50;91.20;;;;;;5079386;28;27411;-69
2021/05/28 01:53:37;;;;;;;3.42;2.38;;;13.50;91.00;;;;;;5083133;28;27397;-69
2021/05/28 01:56:26;;;;;;;4.43;3.35;;;13.40;91.20;;;;;;5083499;28;27363;-69
2021/05/28 01:59:12;;;;;;;5.13;2.95;;;13.40;91.10;;;;;;5079761;28;27263;-68
2021/05/28 02:01:57;;;;;;;4.18;3.00;;;13.40;91.30;;;;;;5083033;28;27445;-69
2021/05/28 02:04:42;;;;;;;3.72;2.92;;;13.40;91.30;;;;;;5083502;28;27411;-69
2021/05/28 02:07:26;;;;;;;6.78;3.20;;;13.40;91.50;;;;;;5068356;28;27512;-69
2021/05/28 02:10:11;;;;;;;6.53;2.75;;;13.40;91.50;;;;;;5083635;28;27581;-69
2021/05/28 02:12:56;;;;;;;4.43;2.72;;;13.40;91.40;;;;;;5083722;28;27321;-69
2021/05/28 02:15:40;;;;;;;4.82;3.15;;;13.40;91.60;;;;;;5083581;28;27361;-69
2021/05/28 02:18:25;;;;;;;4.05;3.63;;;13.40;91.90;;;;;;5083550;28;27871;-68
2021/05/28 02:21:10;;;;;;;4.60;3.90;;;13.40;91.70;;;;;;5083184;28;27343;-68
2021/05/28 02:23:54;;;;;;;2.75;2.50;;;13.30;91.30;;;;;;5082017;28;27364;-69
2021/05/28 02:26:39;;;;;;;3.90;3.30;;;13.30;91.40;;;;;;5082668;28;27362;-68
2021/05/28 02:29:24;;;;;;;3.78;2.85;;;13.30;91.40;;;;;;5083401;28;27431;-69
2021/05/28 02:32:09;;;;;;;4.93;2.72;;;13.30;91.50;;;;;;5083110;28;27375;-68
2021/05/28 02:34:53;;;;;;;2.92;2.63;;;13.30;91.50;;;;;;5082593;28;27414;-69
2021/05/28 02:37:38;;;;;;;2.50;2.30;;;13.30;91.30;;;;;;5083232;28;27387;-69
2021/05/28 02:40:23;;;;;;;3.10;2.45;;;13.30;91.20;;;;;;5082929;28;27391;-68
2021/05/28 02:43:08;;;;;;;5.60;2.88;;;13.30;91.30;;;;;;5083247;28;27367;-68
2021/05/28 02:45:52;;;;;;;5.65;2.90;;;13.30;91.00;;;;;;5083230;28;27375;-68
2021/05/28 02:48:37;;;;;;;3.17;2.60;;;13.30;91.10;;;;;;5083250;28;27317;-69
2021/05/28 02:51:22;;;;;;;3.03;2.40;;;13.30;91.10;;;;;;5082861;28;27400;-69
2021/05/28 02:54:06;;;;;;;2.95;2.65;;;13.20;90.70;;;;;;5085722;28;27429;-68
2021/05/28 02:56:51;;;;;;;2.60;2.40;;;13.20;90.90;;;;;;5086468;28;27420;-68
2021/05/28 02:59:35;;;;;;;3.05;2.63;;;13.20;90.90;;;;;;5086405;28;27416;-69
2021/05/28 03:02:20;;;;;;;3.17;2.35;;;13.20;91.20;;;;;;5086858;28;27540;-68
2021/05/28 03:05:05;;;;;;;2.97;2.63;;;13.20;91.10;;;;;;5085617;28;27482;-68
2021/05/28 03:07:49;;;;;;;3.25;2.90;;;13.10;91.00;;;;;;5086617;28;27482;-68
2021/05/28 03:10:33;;;;;;;4.20;2.92;;;13.20;90.90;;;;;;5086336;28;27452;-68
2021/05/28 03:13:18;;;;;;;3.60;2.80;;;13.10;90.90;;;;;;5086117;28;27965;-68
2021/05/28 03:16:02;;;;;;;4.50;3.45;;;13.10;91.10;;;;;;5086257;28;27469;-68
2021/05/28 03:18:53;;;;;;;3.92;3.53;;;13.10;90.80;;;;;;5085127;28;27510;-68
2021/05/28 03:22:30;;;;;;;7.50;3.22;;;13.10;90.90;;;;;;5085177;28;27361;-68
2021/05/28 03:24:42;;;;;;;3.20;2.80;;;13.10;90.80;;;;;;5085619;28;27414;-69
2021/05/28 03:27:27;;;;;;;4.32;2.80;;;13.10;90.70;;;;;;5085406;28;27495;-68
2021/05/28 03:30:12;;;;;;;3.45;2.58;;;13.00;90.70;;;;;;5081963;28;27327;-68
2021/05/28 03:32:57;;;;;;;3.47;3.10;;;13.00;90.30;;;;;;5085085;28;27323;-69
2021/05/28 03:35:41;;;;;;;3.40;2.55;;;13.00;90.50;;;;;;5085836;28;27972;-68
2021/05/28 03:38:26;;;;;;;3.58;2.83;;;13.00;90.00;;;;;;5085932;28;27476;-70
2021/05/28 03:41:10;;;;;;;2.40;2.20;;;12.90;90.10;;;;;;5086016;28;27413;-68
2021/05/28 03:43:55;;;;;;;3.08;2.72;;;12.90;90.10;;;;;;5085692;28;26951;-68
2021/05/28 03:46:40;;;;;;;3.42;2.78;;;12.90;90.40;;;;;;5085564;28;27456;-69
2021/05/28 03:49:24;;;;;;;4.10;2.80;;;12.90;90.20;;;;;;5081633;28;27558;-68
2021/05/28 03:52:09;;;;;;;3.55;2.97;;;12.80;90.00;;;;;;5084794;28;27486;-69
2021/05/28 03:54:54;;;;;;;4.25;2.63;;;12.80;90.10;;;;;;5081585;28;27442;-68
2021/05/28 03:57:39;;;;;;;9.15;2.83;;;12.70;90.10;;;;;;5085393;28;27426;-68
2021/05/28 04:00:25;;;;;;;4.18;3.00;;;12.80;90.00;;;;;;5085346;28;27473;-68
2021/05/28 04:03:09;;;;;;;3.40;2.88;;;12.70;90.00;;;;;;5085331;28;27443;-68
2021/05/28 04:05:54;;;;;;;5.47;2.92;;;12.70;90.10;;;;;;5085106;28;27464;-68
2021/05/28 04:08:38;;;;;;;5.60;2.58;;;12.70;90.10;;;;;;5085188;28;27462;-68
2021/05/28 04:11:23;;;;;;;3.20;2.65;;;12.70;90.30;;;;;;5085201;28;27434;-68
2021/05/28 04:14:07;;;;;;;3.53;2.60;;;12.60;90.30;;;;;;5085105;28;27461;-68
2021/05/28 04:16:52;;;;;;;2.60;2.40;;;12.60;90.30;;;;;;5081337;28;27466;-68
2021/05/28 04:19:36;;;;;;;3.30;2.70;;;12.60;90.20;;;;;;5085020;28;27458;-68
2021/05/28 04:22:20;;;;;;;3.40;2.45;;;12.50;90.20;;;;;;5084447;28;27425;-68
2021/05/28 04:25:06;;;;;;;4.55;2.72;;;12.50;90.20;;;;;;5085261;28;27397;-68
2021/05/28 04:27:50;;;;;;;3.60;2.78;;;12.50;90.40;;;;;;5084182;28;27415;-68
2021/05/28 04:30:38;;;;;;;3.05;2.70;;;12.50;90.60;;;;;;5084703;28;28043;-69
2021/05/28 04:33:23;;;;;;;4.43;3.22;;;12.50;90.50;;;;;;5080977;28;27462;-68
2021/05/28 04:36:07;;;;;;;3.13;2.72;;;12.40;90.30;;;;;;5080859;28;27435;-68
2021/05/28 04:38:52;;;;;;;3.08;2.70;;;12.50;90.80;;;;;;5084987;28;27332;-68
2021/05/28 04:41:36;;;;;;;3.33;2.50;;;12.50;90.90;;;;;;5085155;28;27441;-68
2021/05/28 04:44:21;;;;;;;7.68;3.47;;;12.50;91.10;;;;;;5081399;28;27420;-68
2021/05/28 04:47:05;;;;;;;6.05;2.97;;;12.50;91.10;;;;;;5084747;28;27332;-68
2021/05/28 04:49:49;;;;;;;4.85;2.15;;;12.50;91.10;;;;;;5083841;28;27433;-68
2021/05/28 04:52:34;;;;;;;2.88;2.20;;;12.50;91.10;;;;;;5084782;28;27353;-69
2021/05/28 04:55:19;;;;;;;2.88;2.53;;;12.50;91.10;;;;;;5084501;28;27380;-69
2021/05/28 04:58:03;;;;;;;3.15;2.55;;;12.50;91.10;;;;;;5084881;28;27390;-68
2021/05/28 05:00:49;;;;;;;3.28;2.70;;;12.50;91.30;;;;;;5083994;28;27328;-68
2021/05/28 05:03:33;;;;;;;3.58;2.50;;;12.50;91.00;;;;;;5080532;28;27313;-70
2021/05/28 05:06:18;;;;;;;3.90;2.97;;;12.50;91.20;;;;;;5080449;28;27399;-70
2021/05/28 05:09:02;;;;;;;3.03;2.65;;;12.60;91.30;;;;;;5084177;28;27382;-68
2021/05/28 05:11:48;;;;;;;4.13;2.67;;;12.60;91.20;;;;;;5084273;28;27391;-69
2021/05/28 05:14:33;;;;;;;4.70;3.03;;;12.60;91.60;;;;;;5080865;28;27832;-69
2021/05/28 05:17:17;;;;;;;3.65;2.95;;;12.60;91.50;;;;;;5111335;27;27402;-68
2021/05/28 05:20:02;;;;;;;4.70;2.50;;;12.60;91.60;;;;;;5084096;28;27336;-69
2021/05/28 05:22:46;;;;;;;3.47;3.17;;;12.60;91.70;;;;;;5068860;28;27423;-70
2021/05/28 05:25:31;;;;;;;3.03;2.72;;;12.70;91.80;;;;;;5084281;28;27356;-69
2021/05/28 05:28:16;;;;;;;2.85;2.50;;;12.60;91.90;;;;;;5084294;28;27435;-69
2021/05/28 05:31:00;;;;;;;6.80;3.00;;;12.70;91.90;;;;;;5083103;28;27416;-71
2021/05/28 05:33:44;;;;;;;4.88;2.92;;;12.70;91.60;;;;;;5084205;28;27412;-69
2021/05/28 05:36:29;;;;;;;4.82;2.88;;;12.80;89.60;;;;;;5081132;28;27899;-69
2021/05/28 05:39:14;;;;;;;3.25;2.95;;;12.90;89.70;;;;;;5084235;28;27442;-69
2021/05/28 05:42:02;;;;;;;4.38;3.97;;;13.00;90.50;;;;;;5083789;28;27513;-69
2021/05/28 05:44:46;;;;;;;5.28;3.55;;;13.10;90.90;;;;;;5084018;28;27383;-69
2021/05/28 05:47:31;;;;;;;3.78;3.22;;;13.10;91.30;;;;;;5082915;28;27954;-69
2021/05/28 05:50:15;;;;;;;3.47;3.05;;;13.20;90.70;;;;;;5083794;28;27415;-70
2021/05/28 05:53:00;;;;;;;4.53;3.83;;;13.30;90.50;;;;;;5083721;28;27460;-69
2021/05/28 05:55:45;;;;;;;5.45;4.38;;;13.40;91.30;;;;;;5083568;28;27453;-70
2021/05/28 05:58:30;;;;;;;4.85;4.22;;;13.50;90.90;;;;;;5083708;28;27419;-70
2021/05/28 06:01:14;;;;;;;4.78;4.30;;;13.70;91.10;;;;;;5083640;28;27507;-70
2021/05/28 06:03:59;;;;;;;9.57;4.47;;;13.80;89.60;;;;;;5082733;28;27434;-70
2021/05/28 06:06:44;;;;;;;5.78;4.68;;;13.90;89.00;;;;;;5083345;28;27452;-70
2021/05/28 06:09:29;;;;;;;8.00;4.57;;;14.20;89.10;;;;;;5079298;28;27953;-71
2021/05/28 06:12:14;;;;;;;7.75;4.20;;;14.30;88.20;;;;;;5082551;28;27416;-70
2021/05/28 06:14:58;;;;;;;6.35;4.15;;;14.40;87.00;;;;;;5083625;28;27437;-71
2021/05/28 06:17:45;;;;;;;7.68;4.18;;;14.60;86.80;;;;;;5083434;28;27486;-71
2021/05/28 06:20:30;;;;;;;4.45;4.00;;;14.80;86.50;;;;;;5083506;28;27490;-72
2021/05/28 06:23:17;;;;;;;4.88;4.32;;;15.00;87.50;;;;;;5083606;28;27531;-72
2021/05/28 06:26:02;;;;;;;7.55;4.10;;;15.10;87.90;;;;;;5083270;28;27810;-72
2021/05/28 06:28:46;;;;;;;7.90;4.50;;;15.20;88.00;;;;;;5082323;28;27435;-71
2021/05/28 06:31:31;;;;;;;6.50;3.97;;;15.40;88.20;;;;;;5082477;28;27519;-71
2021/05/28 06:34:15;;;;;;;4.25;3.42;;;15.50;88.30;;;;;;5083322;28;27466;-72
2021/05/28 06:37:00;;;;;;;4.95;4.40;;;15.70;89.80;;;;;;5083175;28;27427;-72
2021/05/28 06:39:45;;;;;;;4.55;4.10;;;15.80;90.10;;;;;;5083250;28;27446;-72
2021/05/28 06:42:29;;;;;;;4.88;4.20;;;16.00;89.90;;;;;;5079156;28;27439;-72
2021/05/28 06:45:16;;;;;;;7.18;4.88;;;16.20;90.20;;;;;;5082887;28;27497;-72
2021/05/28 06:48:02;;;;;;;5.80;3.97;;;16.30;90.20;;;;;;5083242;28;27471;-72
2021/05/28 06:50:46;;;;;;;4.55;4.15;;;16.50;90.70;;;;;;5083112;28;27332;-72
2021/05/28 06:53:31;;;;;;;5.07;3.47;;;16.70;91.20;;;;;;5082887;28;27460;-72
2021/05/28 06:56:15;;;;;;;6.47;4.45;;;16.80;90.90;;;;;;5082032;28;27486;-72
2021/05/28 06:59:00;;;;;;;4.75;4.25;;;16.80;90.20;;;;;;5082276;28;27458;-72
2021/05/28 07:01:44;;;;;;;7.63;3.53;;;16.70;87.20;;;;;;5083070;28;27411;-72
2021/05/28 07:04:29;;;;;;;5.63;4.18;;;16.60;84.50;;;;;;5078812;28;27399;-72
2021/05/28 07:07:13;;;;;;;4.22;3.30;;;16.50;86.10;;;;;;5082570;28;27538;-72
2021/05/28 07:09:58;;;;;;;5.43;3.88;;;16.40;86.30;;;;;;5082238;28;27443;-72
2021/05/28 07:12:43;;;;;;;5.72;3.67;;;16.30;86.80;;;;;;5083898;28;27405;-72
2021/05/28 07:15:27;;;;;;;4.30;3.67;;;16.30;87.60;;;;;;5083560;28;27464;-72
2021/05/28 07:18:12;;;;;;;6.85;4.47;;;16.50;90.50;;;;;;5083840;28;27529;-73
2021/05/28 07:20:56;;;;;;;6.18;3.90;;;16.80;91.40;;;;;;5083538;28;27389;-73
2021/05/28 07:23:41;;;;;;;8.23;3.92;;;17.20;91.70;;;;;;5083480;28;27332;-73
2021/05/28 07:26:25;;;;;;;7.57;4.07;;;17.50;90.50;;;;;;5096219;27;27403;-72
2021/05/28 07:29:10;;;;;;;5.32;3.50;;;17.60;90.10;;;;;;5083652;28;27420;-73
2021/05/28 07:31:54;;;;;;;5.20;3.70;;;17.70;89.00;;;;;;5083561;28;27395;-73
2021/05/28 07:34:39;;;;;;;4.38;3.97;;;17.70;88.70;;;;;;5083395;28;27314;-72
2021/05/28 07:37:23;;;;;;;4.82;3.60;;;17.70;90.00;;;;;;5084286;28;27367;-72
2021/05/28 07:40:09;;;;;;;5.70;3.70;;;17.60;88.60;;;;;;5084553;28;27365;-72
2021/05/28 07:42:53;;;;;;;4.18;3.13;;;17.70;90.70;;;;;;5087024;28;27328;-73
2021/05/28 07:45:39;;;;;;;4.00;3.60;;;17.80;90.40;;;;;;5082774;28;26876;-73
2021/05/28 07:48:24;;;;;;;4.00;3.50;;;18.10;90.80;;;;;;5087098;28;27848;-73
2021/05/28 07:51:08;;;;;;;4.78;4.07;;;18.50;90.90;;;;;;5086711;28;27410;-73
2021/05/28 07:53:53;;;;;;;6.47;3.75;;;18.90;88.70;;;;;;5086473;28;27317;-73
2021/05/28 07:56:37;;;;;;;6.95;3.78;;;19.20;88.00;;;;;;5086560;28;27378;-72
2021/05/28 07:59:22;;;;;;;6.07;3.63;;;19.50;86.70;;;;;;5082734;28;27395;-72
2021/05/28 08:02:08;;;;;;;8.70;3.50;;;19.70;83.50;;;;;;5082766;28;27367;-73
2021/05/28 08:04:54;;;;;;;4.68;3.83;;;19.80;84.80;;;;;;5086964;28;27325;-72
2021/05/28 08:07:38;;;;;;;6.97;3.97;;;20.00;86.60;;;;;;5086680;28;27387;-73
2021/05/28 08:10:23;;;;;;;6.55;3.55;;;20.10;84.50;;;;;;5085908;28;27849;-72
2021/05/28 08:13:07;;;;;;;6.40;3.72;;;20.40;84.80;;;;;;5086659;28;27473;-72
2021/05/28 08:15:54;;;;;;;3.95;3.28;;;20.70;81.40;;;;;;5086764;28;27332;-72
2021/05/28 08:18:39;;;;;;;6.68;3.67;;;21.00;80.00;;;;;;5085851;28;27344;-72
2021/05/28 08:21:26;;;;;;;5.20;3.45;;;21.20;79.40;;;;;;5086135;28;27328;-72
2021/05/28 08:24:11;;;;;;;7.18;3.63;;;21.50;77.80;;;;;;5086107;28;27406;-71
2021/05/28 08:26:55;;;;;;;4.55;3.00;;;21.70;76.20;;;;;;5084679;28;27415;-72
2021/05/28 08:29:40;;;;;;;4.63;3.35;;;21.90;79.50;;;;;;5086300;28;27333;-71
2021/05/28 08:32:25;;;;;;;3.40;2.83;;;22.10;77.10;;;;;;5081894;28;27930;-71
2021/05/28 08:35:10;;;;;;;5.13;3.08;;;22.20;76.20;;;;;;5086189;28;27375;-72
2021/05/28 08:37:54;;;;;;;5.00;2.35;;;22.00;72.90;;;;;;5085226;28;27398;-71
2021/05/28 08:40:39;;;;;;;4.95;2.90;;;21.80;74.80;;;;;;5085847;28;27378;-71
2021/05/28 08:43:23;;;;;;;3.47;2.88;;;21.60;75.80;;;;;;5085299;28;27385;-71
2021/05/28 08:46:08;;;;;;;5.47;3.10;;;21.40;75.00;;;;;;5084695;28;27405;-72
2021/05/28 08:48:54;;;;;;;5.00;3.03;;;21.10;73.30;;;;;;5086078;28;27344;-72
2021/05/28 08:51:38;;;;;;;3.50;2.60;;;20.80;71.90;;;;;;5081509;28;27387;-72
2021/05/28 08:54:23;;;;;;;4.70;3.03;;;20.60;74.00;;;;;;5085088;28;27373;-72
2021/05/28 08:57:07;;;;;;;6.47;4.00;;;20.60;76.50;;;;;;5084796;28;27434;-72
2021/05/28 08:59:52;;;;;;;5.45;2.78;;;20.80;79.90;;;;;;5081876;28;27367;-72
2021/05/28 09:02:38;;;;;;;3.13;2.70;;;21.20;80.00;;;;;;5085920;28;27451;-72
2021/05/28 09:05:25;;;;;;;3.13;2.83;;;21.40;76.30;;;;;;5085376;28;27363;-72
2021/05/28 09:08:10;;;;;;;6.30;3.00;;;21.70;74.20;;;;;;5085554;28;27410;-72
2021/05/28 09:11:13;;;;;;;3.92;2.17;;;22.10;76.30;;;;;;5087795;28;27318;-72
2021/05/28 09:13:57;;;;;;;6.47;2.58;;;22.50;74.40;;;;;;5085443;28;27329;-72
2021/05/28 09:16:48;;;;;;;3.15;2.25;;;22.90;72.80;;;;;;5085745;28;27974;-71
2021/05/28 09:19:36;;;;;;;6.05;2.47;;;23.00;67.90;;;;;;5071111;28;27417;-75
2021/05/28 09:22:21;;;;;;;8.20;2.53;;;23.00;68.30;;;;;;5081842;28;27478;-75
2021/05/28 09:25:06;;;;;;;4.25;2.33;;;22.90;69.80;;;;;;5084441;28;27484;-81
2021/05/28 09:27:50;;;;;;;3.55;2.42;;;22.80;65.20;;;;;;5084383;28;27434;-77
2021/05/28 09:30:36;;;;;;;6.47;2.95;;;22.70;68.50;;;;;;5084520;28;27446;-80
2021/05/28 09:33:20;;;;;;;5.68;3.10;;;22.50;71.90;;;;;;5085058;28;27454;-74
2021/05/28 09:36:26;;;;;;;9.15;3.25;;;22.40;72.10;;;;;;5081191;28;27449;-74
2021/05/28 09:39:14;;;;;;;3.15;2.40;;;22.10;72.60;;;;;;5085229;28;27455;-70
2021/05/28 09:42:00;;;;;;;30.65;7.47;;;21.90;73.70;;;;;;5084754;28;27643;-72
2021/05/28 09:44:45;;;;;;;13.68;4.57;;;21.60;75.00;;;;;;5085605;28;27431;-75
2021/05/28 09:47:34;;;;;;;13.30;3.97;;;21.40;78.10;;;;;;5093974;28;27320;-73
2021/05/28 09:50:18;;;;;;;6.25;3.05;;;21.20;79.50;;;;;;5100276;27;27464;-74
2021/05/28 09:53:04;;;;;;;15.38;4.45;;;21.20;77.30;;;;;;5066441;28;27436;-73
2021/05/28 09:55:51;;;;;;;7.30;3.25;;;21.30;74.80;;;;;;5085020;28;27413;-73
2021/05/28 09:58:55;;;;;;;6.80;3.25;;;21.60;75.10;;;;;;5084112;28;27477;-73
2021/05/28 10:01:54;;;;;;;4.13;3.03;;;22.10;74.20;;;;;;5084272;28;28027;-73
2021/05/28 10:04:54;;;;;;;3.85;2.60;;;22.30;73.30;;;;;;5084789;28;27506;-73
2021/05/28 10:07:39;;;;;;;5.93;3.15;;;22.80;77.00;;;;;;5084501;28;27435;-74
2021/05/28 10:10:23;;;;;;;3.65;2.58;;;23.10;71.60;;;;;;5081357;28;27453;-73
2021/05/28 10:13:12;;;;;;;3.10;2.22;;;23.10;68.20;;;;;;5083650;28;27489;-70
2021/05/28 10:15:59;;;;;;;4.05;2.70;;;23.10;69.70;;;;;;5080308;28;27422;-70
2021/05/28 10:18:44;;;;;;;4.05;2.70;;;23.20;71.70;;;;;;5084374;28;27439;-72
2021/05/28 10:21:29;;;;;;;6.93;2.15;;;23.30;73.90;;;;;;5083961;28;27391;-79
2021/05/28 10:24:13;;;;;;;12.15;3.05;;;23.50;62.80;;;;;;5084471;28;27324;-73
2021/05/28 10:26:58;;;;;;;2.67;2.08;;;23.70;58.50;;;;;;5083789;28;27394;-77
2021/05/28 10:29:42;;;;;;;4.28;2.17;;;23.90;64.20;;;;;;5083758;28;27424;-77
2021/05/28 10:32:26;;;;;;;5.35;2.28;;;24.10;67.00;;;;;;5097648;27;27492;-78
2021/05/28 10:35:17;;;;;;;5.22;2.45;;;24.00;69.10;;;;;;5083744;28;27441;-77
2021/05/28 10:38:02;;;;;;;4.03;2.15;;;23.80;63.90;;;;;;5084267;28;27484;-78
2021/05/28 10:40:47;;;;;;;5.20;2.22;;;23.60;66.10;;;;;;5084389;28;27663;-77
2021/05/28 10:43:32;;;;;;;4.55;3.10;;;23.30;66.50;;;;;;5083577;28;27366;-78
2021/05/28 10:46:19;;;;;;;2.88;2.35;;;23.10;69.80;;;;;;5084102;28;27340;-78
2021/05/28 10:49:08;;;;;;;2.28;1.98;;;22.90;70.00;;;;;;5083414;28;27408;-78
2021/05/28 10:51:52;;;;;;;4.00;2.42;;;22.70;71.20;;;;;;5083949;28;27379;-78
2021/05/28 10:54:42;;;;;;;3.92;2.00;;;22.60;72.80;;;;;;5084145;28;27396;-78
2021/05/28 10:57:28;;;;;;;4.88;2.45;;;22.50;72.50;;;;;;5083048;28;27879;-78
2021/05/28 11:00:30;;;;;;;5.25;2.40;;;22.40;71.70;;;;;;5084038;28;27450;-78
2021/05/28 11:03:15;;;;;;;2.95;2.33;;;22.50;68.40;;;;;;5083643;28;27320;-76
2021/05/28 11:06:03;;;;;;;2.83;2.30;;;22.70;68.50;;;;;;5083805;28;27356;-76
2021/05/28 11:08:49;;;;;;;6.25;2.65;;;23.10;70.20;;;;;;5083996;28;27841;-75
2021/05/28 11:11:36;;;;;;;4.75;2.53;;;23.40;71.80;;;;;;5083709;28;27461;-75
2021/05/28 11:14:21;;;;;;;4.38;2.38;;;23.80;70.00;;;;;;5084794;28;27485;-75
2021/05/28 11:17:05;;;;;;;4.78;2.15;;;24.20;71.00;;;;;;5087560;28;27450;-74
2021/05/28 11:19:53;;;;;;;6.30;2.30;;;24.60;69.90;;;;;;5087870;28;27860;-74
2021/05/28 11:22:39;;;;;;;3.95;2.10;;;24.80;68.10;;;;;;5087121;28;27380;-74
2021/05/28 11:25:24;;;;;;;3.15;2.38;;;24.90;70.70;;;;;;5087494;28;27336;-75
2021/05/28 11:28:09;;;;;;;4.43;2.10;;;24.80;64.70;;;;;;5086876;28;27670;-75
2021/05/28 11:30:59;;;;;;;3.22;2.15;;;24.70;70.00;;;;;;5087395;28;27387;-75
2021/05/28 11:33:43;;;;;;;2.70;1.92;;;24.60;70.30;;;;;;5086898;28;27449;-74
2021/05/28 11:36:29;;;;;;;2.78;2.08;;;24.40;69.60;;;;;;5087190;28;27464;-74
2021/05/28 11:39:19;;;;;;;2.83;1.90;;;24.30;68.40;;;;;;5086831;28;27439;-74
2021/05/28 11:42:04;;;;;;;4.22;2.25;;;24.10;67.90;;;;;;5082770;28;27910;-75
2021/05/28 11:44:50;;;;;;;4.10;1.73;;;23.90;66.20;;;;;;5086307;28;27400;-75
2021/05/28 11:47:37;;;;;;;3.92;2.40;;;23.90;70.20;;;;;;5100847;27;27378;-75
2021/05/28 11:50:22;;;;;;;2.63;2.20;;;24.00;74.80;;;;;;5086990;28;27392;-74
2021/05/28 11:53:10;;;;;;;2.83;2.13;;;24.10;69.90;;;;;;5087036;28;27316;-75
2021/05/28 11:55:56;;;;;;;3.38;2.60;;;23.90;65.30;;;;;;5086517;28;27462;-75
2021/05/28 11:58:49;;;;;;;3.30;2.20;;;23.80;69.00;;;;;;5086906;28;27379;-75
2021/05/28 12:01:43;;;;;;;3.85;2.30;;;23.70;65.80;;;;;;5100157;27;27481;-72
2021/05/28 12:04:30;;;;;;;4.03;2.50;;;23.50;66.70;;;;;;5086735;28;27427;-73
2021/05/28 12:07:14;;;;;;;3.03;2.42;;;23.50;62.10;;;;;;5086332;28;27458;-73
2021/05/28 12:10:09;;;;;;;5.53;2.20;;;23.40;62.80;;;;;;5085667;28;26925;-75
2021/05/28 12:13:00;;;;;;;2.35;2.00;;;23.20;65.80;;;;;;5086093;28;27462;-77
2021/05/28 12:15:52;;;;;;;4.50;2.25;;;23.10;65.70;;;;;;5086232;28;27880;-75
2021/05/28 12:18:37;;;;;;;3.38;2.38;;;22.90;66.60;;;;;;5082394;28;27443;-75
2021/05/28 12:21:24;;;;;;;3.70;1.98;;;22.80;68.50;;;;;;5086523;28;27371;-72
2021/05/28 12:24:08;;;;;;;4.40;2.40;;;22.80;71.70;;;;;;5085959;28;27330;-75
2021/05/28 12:26:53;;;;;;;4.22;2.00;;;22.90;76.40;;;;;;5084867;28;27414;-76
2021/05/28 12:29:38;;;;;;;8.07;2.10;;;23.10;75.50;;;;;;5086253;28;27400;-76
2021/05/28 12:32:22;;;;;;;4.28;2.00;;;23.20;73.10;;;;;;5081975;28;27462;-76
2021/05/28 12:35:07;;;;;;;3.15;1.90;;;23.40;70.40;;;;;;5099690;27;27473;-76
2021/05/28 12:38:21;;;;;;;3.25;2.00;;;23.40;67.50;;;;;;5085952;28;27461;-76
2021/05/28 12:41:08;;;;;;;2.53;1.67;;;23.30;65.40;;;;;;5084836;28;27440;-76
2021/05/28 12:43:53;;;;;;;1.67;1.58;;;23.20;68.10;;;;;;5086101;28;27383;-76
2021/05/28 12:46:39;;;;;;;2.75;1.40;;;23.10;70.90;;;;;;5085761;28;27356;-72
2021/05/28 12:49:30;;;;;;;3.13;2.05;;;23.00;70.10;;;;;;5085381;28;27336;-76
2021/05/28 12:52:15;;;;;;;2.22;1.60;;;22.90;69.60;;;;;;5085319;28;27434;-76
2021/05/28 12:55:00;;;;;;;6.18;2.00;;;22.90;75.60;;;;;;5082667;28;27438;-81
2021/05/28 12:57:45;;;;;;;4.40;2.10;;;23.00;70.20;;;;;;5085613;28;27470;-74
2021/05/28 13:00:37;;;;;;;2.15;1.90;;;23.10;52.80;;;;;;5081528;28;27450;-72
2021/05/28 13:03:37;;;;;;;1.95;1.67;;;23.10;49.40;;;;;;5085830;28;27328;-73
2021/05/28 13:06:26;;;;;;;4.60;2.28;;;23.20;48.50;;;;;;5085868;28;27411;-70
2021/05/28 13:09:29;;;;;;;2.33;1.90;;;23.20;49.00;;;;;;5081776;28;27391;-70
2021/05/28 13:12:37;;;;;;;2.45;1.75;;;23.20;49.40;;;;;;5085195;28;27821;-72
2021/05/28 13:15:24;;;;;;;2.97;1.80;;;23.20;54.10;;;;;;5085402;28;27332;-72
2021/05/28 13:18:09;;;;;;;3.20;1.83;;;23.20;61.60;;;;;;5084936;28;27475;-71
2021/05/28 13:20:53;;;;;;;2.08;1.75;;;23.30;67.40;;;;;;5085555;28;27456;-71
2021/05/28 13:23:38;;;;;;;2.65;1.80;;;23.40;67.80;;;;;;5085323;28;27456;-71
2021/05/28 13:26:23;;;;;;;3.63;1.52;;;23.60;69.90;;;;;;5084703;28;27588;-71
2021/05/28 13:29:08;;;;;;;2.92;1.60;;;23.70;69.70;;;;;;5084382;28;27344;-71
2021/05/28 13:32:00;;;;;;;5.18;1.70;;;23.90;71.10;;;;;;5084117;28;27492;-70
2021/05/28 13:34:45;;;;;;;2.60;1.52;;;24.00;69.60;;;;;;5085038;28;27820;-71
2021/05/28 13:37:32;;;;;;;2.03;1.30;;;24.10;69.60;;;;;;5083299;28;28071;-71
2021/05/28 13:40:16;;;;;;;2.55;1.52;;;24.10;72.30;;;;;;5080990;28;27313;-70
2021/05/28 13:43:01;;;;;;;2.10;1.48;;;24.20;68.70;;;;;;5085261;28;27348;-71
2021/05/28 13:45:46;;;;;;;4.00;1.70;;;24.20;69.40;;;;;;5084365;28;27331;-70
2021/05/28 13:48:31;;;;;;;3.67;2.10;;;24.30;70.10;;;;;;5069542;28;27352;-70
2021/05/28 13:51:16;;;;;;;3.25;2.15;;;24.40;62.90;;;;;;5084638;28;27329;-70
2021/05/28 13:54:00;;;;;;;1.80;1.52;;;24.40;62.30;;;;;;5084270;28;27353;-69
2021/05/28 13:56:45;;;;;;;5.65;1.80;;;24.40;61.90;;;;;;5084617;28;27368;-70
2021/05/28 13:59:29;;;;;;;2.47;2.00;;;24.40;65.90;;;;;;5084600;28;27387;-70
2021/05/28 14:02:13;;;;;;;2.30;1.80;;;24.40;67.60;;;;;;5084662;28;27321;-69
2021/05/28 14:04:58;;;;;;;2.38;1.92;;;24.30;61.10;;;;;;5083848;28;27324;-69
2021/05/28 14:07:43;;;;;;;3.38;1.88;;;24.30;66.00;;;;;;5084010;28;27986;-74
2021/05/28 14:10:28;;;;;;;3.22;1.95;;;24.20;63.50;;;;;;5080705;28;27320;-69
2021/05/28 14:13:12;;;;;;;2.20;1.95;;;24.20;67.20;;;;;;5084627;28;27431;-70
2021/05/28 14:15:57;;;;;;;2.78;1.88;;;24.20;64.30;;;;;;5084355;28;27333;-69
2021/05/28 14:18:42;;;;;;;5.05;1.65;;;24.10;63.00;;;;;;5084292;28;27493;-69
2021/05/28 14:21:26;;;;;;;2.65;1.77;;;24.00;70.80;;;;;;5084211;28;27412;-69